Thursday, November 23, 2017, 7:09 AM GMT
Back to Local

CYUL, Montreal / Pierre Elliot Trudeau International Airport, Que

Location: , , Canada Lat: 45.467
Local Time: 7:09 AM GMT ( 7:09 GMT) Lon: -73.75
Time Zone: GMT Elev: 101 ft

Show me the last for .
Show Coded

Time T Td Feel RH Dir Speed Gust Alt SLP Vis Weather Sky Remarks
2017-11-23 06:00 23 12 13 62 280° 9 - 30.10 30.11 15 OVC026 None
2017-11-23 05:00 23 14 12 67 280° 10 - 30.11 30.12 15 OVC027 None
2017-11-23 04:00 23 14 12 67 280° 12 - 30.11 30.12 15 BKN025 None
2017-11-23 03:00 25 16 11 68 280° 13 18 30.10 30.11 15 BKN025 None
2017-11-23 02:00 25 16 12 68 280° 16 - 30.09 30.10 15 BKN024 None
2017-11-23 01:00 27 18 15 68 290° 14 - 30.08 30.09 15 BKN025 BKN055 None
2017-11-23 00:00 28 19 18 68 290° 13 - 30.07 30.08 15 FEW020 BKN055 None
2017-11-22 23:00 30 23 20 74 300° 13 - 30.04 30.05 15 FEW030 OVC055 None
2017-11-22 22:00 32 25 23 74 290° 13 - 30.02 30.03 15 FEW030 OVC055 None
2017-11-22 21:00 34 27 22 74 290° 15 21 30.01 30.01 15 FEW012 FEW030 OVC055 None
2017-11-22 20:00 36 28 25 74 280° 14 21 29.98 29.99 15 FEW014 OVC055 None
2017-11-22 19:21 36 30 26 80 280° 15 - 29.97 29.98 15 SCT013 OVC055 None
2017-11-22 19:07 36 32 27 86 270° 14 - 29.97 29.98 15 BKN014 OVC050 None
2017-11-22 19:00 37 32 30 80 270° 12 - 29.97 29.97 15 FEW012 OVC050 None
2017-11-22 18:00 37 32 29 80 270° 13 - 29.97 29.97 15 FEW009 BKN040 OVC063 None
2017-11-22 17:00 37 34 29 86 280° 14 - 29.96 29.97 15 FEW009 BKN012 OVC065 None
2017-11-22 16:00 36 34 28 93 260° 10 - 29.97 29.98 15 FEW009 OVC011 None
2017-11-22 15:00 36 34 28 93 250° 10 - 29.98 29.98 15 BKN008 BKN014 OVC050 None
2017-11-22 14:15 36 34 29 93 250° 9 - 29.97 29.98 15 SCT007 BKN030 OVC080 None
2017-11-22 14:00 36 34 29 93 250° 9 - 29.97 29.98 15 BKN007 BKN030 OVC060 None
2017-11-22 13:52 36 34 28 93 250° 10 - 29.97 29.98 15 -RA BKN007 OVC028 None
2017-11-22 13:00 36 34 29 93 260° 9 - 29.95 29.96 10 -RA SCT007 OVC030 None
2017-11-22 12:00 36 34 29 93 290° 9 - 29.92 29.93 10 -RA FEW009 OVC025 None
2017-11-22 11:00 37 34 31 86 300° 9 - 29.91 29.92 10 -RA FEW010 OVC020 None
2017-11-22 10:00 39 37 35 93 280° 6 - 29.87 29.88 15 -RA FEW011 OVC020 None
2017-11-22 09:18 41 37 38 86 260° 5 - 29.86 29.87 15 FEW011 OVC018 None
2017-11-22 09:00 39 37 36 93 270° 5 - 29.86 29.87 15 -RA SCT012 BKN018 OVC025 None
2017-11-22 08:00 41 37 37 86 240° 6 - 29.86 29.87 15 -RA BKN027 OVC040 None

Support USWX by starting your Amazon purchase here.